Time;durP1;ratioP1;P1;durP2;ratioP2;P2;SDS_P1;SDS_P2;PMS_P1;PMS_P2;Temp;Humidity;BMP_temperature;BMP_pressure;BME280_temperature;BME280_humidity;BME280_pressure;Samples;Min_cycle;Max_cycle;Signal;HPM_P1;HPM_P2
2021/03/20 00:00:58;;;;;;;9.60;5.30;;;2.40;94.40;;;;;;5092561;28;20044;-78
2021/03/20 00:03:26;;;;;;;9.05;5.07;;;2.30;94.60;;;;;;5091808;28;20391;-79
2021/03/20 00:05:53;;;;;;;8.45;4.50;;;2.30;94.80;;;;;;5091116;28;20143;-78
2021/03/20 00:08:22;;;;;;;8.63;4.93;;;2.30;94.90;;;;;;5091988;28;20154;-78
2021/03/20 00:10:50;;;;;;;9.32;5.00;;;2.20;94.80;;;;;;5091271;28;20143;-78
2021/03/20 00:13:19;;;;;;;8.07;4.82;;;2.20;94.80;;;;;;5091808;28;20131;-78
2021/03/20 00:15:46;;;;;;;9.40;4.88;;;2.20;94.60;;;;;;5091867;28;20159;-78
2021/03/20 00:18:13;;;;;;;9.57;4.63;;;2.20;94.70;;;;;;5091252;28;20131;-78
2021/03/20 00:20:43;;;;;;;9.02;4.90;;;2.10;94.70;;;;;;5090510;28;20055;-75
2021/03/20 00:23:10;;;;;;;8.10;4.45;;;2.00;94.90;;;;;;5091465;28;20138;-78
2021/03/20 00:25:38;;;;;;;9.45;4.75;;;2.00;95.20;;;;;;5091002;28;20457;-78
2021/03/20 00:28:08;;;;;;;10.13;4.68;;;2.00;95.40;;;;;;5091547;28;20127;-75
2021/03/20 00:30:35;;;;;;;8.30;4.57;;;1.90;95.50;;;;;;5090096;28;20477;-78
2021/03/20 00:33:02;;;;;;;8.95;4.85;;;1.90;95.70;;;;;;5091568;28;20564;-75
2021/03/20 00:35:28;;;;;;;8.85;4.72;;;1.90;95.70;;;;;;5090665;28;20155;-78
2021/03/20 00:37:56;;;;;;;9.13;4.82;;;1.90;95.60;;;;;;5091166;28;20138;-74
2021/03/20 00:40:27;;;;;;;8.05;4.90;;;1.90;95.30;;;;;;5089874;28;20127;-78
2021/03/20 00:42:54;;;;;;;8.18;4.65;;;1.90;95.30;;;;;;5091483;28;20138;-78
2021/03/20 00:45:23;;;;;;;8.27;4.80;;;1.90;95.20;;;;;;5090668;28;20177;-77
2021/03/20 00:47:51;;;;;;;9.20;5.00;;;1.80;95.40;;;;;;5090803;28;20131;-77
2021/03/20 00:50:22;;;;;;;8.75;4.90;;;1.80;95.40;;;;;;5091167;28;20522;-78
2021/03/20 00:52:49;;;;;;;9.73;4.53;;;1.70;95.40;;;;;;5073404;28;20143;-78
2021/03/20 00:55:17;;;;;;;9.02;4.85;;;1.70;95.30;;;;;;5090785;28;20127;-75
2021/03/20 00:57:44;;;;;;;9.98;5.10;;;1.70;95.40;;;;;;5091204;28;20058;-74
2021/03/20 01:00:15;;;;;;;10.85;5.35;;;1.60;95.90;;;;;;5090428;28;20448;-77
2021/03/20 01:02:42;;;;;;;10.48;4.88;;;1.60;95.90;;;;;;5090823;28;20131;-77
2021/03/20 01:05:12;;;;;;;8.65;5.03;;;1.50;96.10;;;;;;5090556;28;20545;-77
2021/03/20 01:07:39;;;;;;;9.32;4.63;;;1.60;96.20;;;;;;5090576;28;20183;-75
2021/03/20 01:10:10;;;;;;;16.30;7.90;;;1.60;96.00;;;;;;5090574;28;20105;-75
2021/03/20 01:12:38;;;;;;;17.48;9.05;;;1.60;96.10;;;;;;5090341;28;20131;-75
2021/03/20 01:15:06;;;;;;;9.82;5.30;;;1.60;96.30;;;;;;5090096;28;20087;-75
2021/03/20 01:17:33;;;;;;;9.98;5.63;;;1.60;96.20;;;;;;5072333;28;20535;-74
2021/03/20 01:20:00;;;;;;;8.88;4.78;;;1.60;96.10;;;;;;5080851;28;20130;-76
2021/03/20 01:22:27;;;;;;;8.20;4.57;;;1.70;96.30;;;;;;5090352;28;20135;-77
2021/03/20 01:24:54;;;;;;;8.65;4.80;;;1.60;96.10;;;;;;5071210;28;20134;-74
2021/03/20 01:27:21;;;;;;;8.30;4.30;;;1.60;95.80;;;;;;5072502;28;20135;-74
2021/03/20 01:29:48;;;;;;;8.10;4.70;;;1.60;95.90;;;;;;5090034;28;20054;-75
2021/03/20 01:32:15;;;;;;;9.43;4.97;;;1.60;96.20;;;;;;5072622;28;20519;-74
2021/03/20 01:34:42;;;;;;;8.30;4.85;;;1.60;96.30;;;;;;5090634;28;20074;-74
2021/03/20 01:37:09;;;;;;;9.45;5.20;;;1.60;96.50;;;;;;5090199;28;20511;-77
2021/03/20 01:39:35;;;;;;;8.43;5.35;;;1.60;96.30;;;;;;5072443;28;20476;-77
2021/03/20 01:42:05;;;;;;;8.48;4.93;;;1.60;95.80;;;;;;5090835;28;20071;-73
2021/03/20 01:44:32;;;;;;;8.68;4.80;;;1.60;95.70;;;;;;5089864;28;20123;-76
2021/03/20 01:47:02;;;;;;;9.55;5.20;;;1.50;95.80;;;;;;5090107;28;20059;-76
2021/03/20 01:49:34;;;;;;;9.50;5.18;;;1.40;96.20;;;;;;5090057;28;20127;-76
2021/03/20 01:52:17;;;;;;;10.90;6.03;;;1.50;96.10;;;;;;5089140;28;20468;-76
2021/03/20 01:54:51;;;;;;;14.18;6.85;;;1.50;96.50;;;;;;5089753;28;20119;-76
2021/03/20 01:57:23;;;;;;;10.45;6.13;;;1.50;96.70;;;;;;5090031;28;20130;-76
2021/03/20 01:59:51;;;;;;;12.20;6.40;;;1.50;96.80;;;;;;5089806;28;20036;-76
2021/03/20 02:02:19;;;;;;;10.77;6.00;;;1.60;96.60;;;;;;5087425;28;20143;-76
2021/03/20 02:04:45;;;;;;;12.50;6.00;;;1.60;96.70;;;;;;5086948;28;20130;-75
2021/03/20 02:07:12;;;;;;;11.35;5.60;;;1.60;96.70;;;;;;5070517;28;20135;-75
2021/03/20 02:09:39;;;;;;;8.75;5.15;;;1.70;96.20;;;;;;5088444;28;20040;-75
2021/03/20 02:12:18;;;;;;;8.93;5.28;;;1.70;95.90;;;;;;5071170;28;20737;-74
2021/03/20 02:14:54;;;;;;;10.20;5.40;;;1.70;96.00;;;;;;5088312;28;20074;-75
2021/03/20 02:17:32;;;;;;;8.98;5.00;;;1.70;95.90;;;;;;5089577;28;20436;-75
2021/03/20 02:20:53;;;;;;;9.75;5.25;;;1.70;96.10;;;;;;5084122;28;20137;-75
2021/03/20 02:24:10;;;;;;;8.52;5.20;;;1.70;96.10;;;;;;5089553;28;20477;-75
2021/03/20 02:27:09;;;;;;;9.50;5.32;;;1.70;96.00;;;;;;5082757;28;20174;-76
2021/03/20 02:30:22;;;;;;;9.98;5.57;;;1.70;96.10;;;;;;5089294;28;20466;-75
2021/03/20 02:33:23;;;;;;;8.82;4.88;;;1.60;95.70;;;;;;5089210;28;20040;-75
2021/03/20 02:36:01;;;;;;;9.05;5.05;;;1.60;95.70;;;;;;5083652;28;20139;-75
2021/03/20 02:38:38;;;;;;;9.23;5.03;;;1.50;95.90;;;;;;5089309;28;20569;-74
2021/03/20 02:41:19;;;;;;;9.77;4.80;;;1.50;96.30;;;;;;5088583;28;20131;-75
2021/03/20 02:43:56;;;;;;;9.75;5.20;;;1.40;96.40;;;;;;5089000;28;20048;-75
2021/03/20 02:46:28;;;;;;;9.30;5.18;;;1.40;96.50;;;;;;5088153;28;20130;-75
2021/03/20 02:49:05;;;;;;;10.55;5.38;;;1.40;96.60;;;;;;5088609;28;20146;-75
2021/03/20 02:51:40;;;;;;;8.70;5.07;;;1.50;96.70;;;;;;5088809;28;20857;-75
2021/03/20 02:54:13;;;;;;;9.82;5.13;;;1.50;96.60;;;;;;5088848;28;20451;-75
2021/03/20 02:56:45;;;;;;;9.65;5.35;;;1.50;96.50;;;;;;5088492;28;20131;-75
2021/03/20 02:59:14;;;;;;;9.85;5.40;;;1.50;96.70;;;;;;5088955;28;20135;-75
2021/03/20 03:01:45;;;;;;;8.50;4.78;;;1.50;96.70;;;;;;5088510;28;20094;-76
2021/03/20 03:04:18;;;;;;;10.15;5.43;;;1.60;96.70;;;;;;5090398;28;20477;-75
2021/03/20 03:06:50;;;;;;;9.38;4.85;;;1.60;96.60;;;;;;5091615;28;20051;-75
2021/03/20 03:09:21;;;;;;;8.52;4.78;;;1.60;96.70;;;;;;5093057;28;20046;-76
2021/03/20 03:11:54;;;;;;;11.23;5.22;;;1.60;96.90;;;;;;5092838;28;20485;-76
2021/03/20 03:14:27;;;;;;;8.77;4.80;;;1.70;96.90;;;;;;5092504;28;20071;-76
2021/03/20 03:16:59;;;;;;;9.85;5.45;;;1.70;96.90;;;;;;5092408;28;20127;-76
2021/03/20 03:19:33;;;;;;;9.05;5.00;;;1.70;96.90;;;;;;5092793;28;20127;-76
2021/03/20 03:22:05;;;;;;;10.48;4.90;;;1.70;97.00;;;;;;5092963;28;20127;-76
2021/03/20 03:24:33;;;;;;;8.77;4.97;;;1.70;97.00;;;;;;5092531;28;20485;-76
2021/03/20 03:27:05;;;;;;;8.25;4.88;;;1.70;97.10;;;;;;5092970;28;20140;-76
2021/03/20 03:29:35;;;;;;;10.10;5.30;;;1.80;97.30;;;;;;5092140;28;20131;-76
2021/03/20 03:32:09;;;;;;;8.20;4.45;;;1.80;96.90;;;;;;5072374;28;20131;-76
2021/03/20 03:34:51;;;;;;;7.70;4.50;;;1.80;96.80;;;;;;5074866;28;20135;-75
2021/03/20 03:37:29;;;;;;;8.38;4.60;;;1.80;97.00;;;;;;5092341;28;20124;-76
2021/03/20 03:40:00;;;;;;;8.60;4.95;;;1.80;97.10;;;;;;5092590;28;20048;-76
2021/03/20 03:42:26;;;;;;;8.70;4.53;;;1.90;97.10;;;;;;5091833;28;20089;-75
2021/03/20 03:44:55;;;;;;;9.15;5.18;;;1.90;97.20;;;;;;5092213;28;20067;-75
2021/03/20 03:47:25;;;;;;;9.70;5.20;;;1.90;96.80;;;;;;5092348;28;20131;-75
2021/03/20 03:49:55;;;;;;;10.45;5.00;;;1.90;96.40;;;;;;5091988;28;20135;-75
2021/03/20 03:52:23;;;;;;;8.85;4.85;;;1.90;96.70;;;;;;5092251;28;20126;-76
2021/03/20 03:54:51;;;;;;;9.60;5.03;;;1.90;97.10;;;;;;5073665;28;20134;-76
2021/03/20 03:57:51;;;;;;;8.20;4.88;;;1.90;96.90;;;;;;5074125;28;20479;-76
2021/03/20 04:00:27;;;;;;;9.65;5.35;;;1.90;96.90;;;;;;5088396;28;20055;-76
2021/03/20 04:03:40;;;;;;;9.25;5.32;;;1.90;96.90;;;;;;5091983;28;20055;-76
2021/03/20 04:06:29;;;;;;;9.52;5.53;;;2.00;96.90;;;;;;5084638;28;20508;-76
2021/03/20 04:09:08;;;;;;;8.77;4.75;;;2.00;97.00;;;;;;5088238;28;20118;-76
2021/03/20 04:11:41;;;;;;;9.60;5.20;;;1.90;97.10;;;;;;5074441;28;20519;-76
2021/03/20 04:14:15;;;;;;;10.05;5.80;;;1.90;97.00;;;;;;5054435;28;20569;-76
2021/03/20 04:16:50;;;;;;;10.35;5.00;;;2.00;96.90;;;;;;5091463;28;20463;-75
2021/03/20 04:19:25;;;;;;;8.50;4.93;;;2.00;97.00;;;;;;5087610;28;20083;-76
2021/03/20 04:21:58;;;;;;;10.05;5.40;;;2.00;97.10;;;;;;5091677;28;20471;-76
2021/03/20 04:24:30;;;;;;;10.68;5.78;;;2.00;97.20;;;;;;5091042;28;20119;-76
2021/03/20 04:27:03;;;;;;;9.77;5.63;;;2.00;97.30;;;;;;5091915;28;20051;-75
2021/03/20 04:29:38;;;;;;;9.82;5.30;;;2.10;97.40;;;;;;5091615;28;20140;-76
2021/03/20 04:32:06;;;;;;;;;;;2.10;97.20;;;;;;5091849;28;20050;-76
2021/03/20 04:34:41;;;;;;;9.55;4.95;;;2.10;97.10;;;;;;5091036;28;19998;-75
2021/03/20 04:37:12;;;;;;;10.82;5.50;;;2.20;96.60;;;;;;5091118;28;20058;-76
2021/03/20 04:39:44;;;;;;;9.18;4.90;;;2.10;96.50;;;;;;5091419;28;20229;-75
2021/03/20 04:42:13;;;;;;;10.02;5.07;;;2.00;96.80;;;;;;5090974;28;20507;-76
2021/03/20 04:44:41;;;;;;;8.30;4.75;;;2.00;97.00;;;;;;5090907;28;20903;-75
2021/03/20 04:47:13;;;;;;;9.65;5.38;;;1.90;97.10;;;;;;5078341;28;20131;-74
2021/03/20 04:49:46;;;;;;;9.82;5.90;;;2.00;97.10;;;;;;5090792;28;20092;-75
2021/03/20 04:52:19;;;;;;;8.90;5.25;;;2.00;97.20;;;;;;5071498;28;20139;-75
2021/03/20 04:54:46;;;;;;;8.63;5.10;;;2.00;97.30;;;;;;5086280;28;20157;-76
2021/03/20 04:57:25;;;;;;;9.32;5.65;;;1.90;97.40;;;;;;5073592;28;20142;-76
2021/03/20 05:00:05;;;;;;;12.95;5.95;;;1.90;97.70;;;;;;5073500;28;20044;-77
2021/03/20 05:02:35;;;;;;;10.20;5.75;;;1.90;97.80;;;;;;5091094;28;20108;-77
2021/03/20 05:05:10;;;;;;;9.68;5.53;;;1.90;97.60;;;;;;5090743;28;20068;-76
2021/03/20 05:07:38;;;;;;;11.27;6.13;;;1.90;97.50;;;;;;5090699;28;20076;-76
2021/03/20 05:10:18;;;;;;;9.77;5.35;;;2.00;97.50;;;;;;5090812;28;20123;-76
2021/03/20 05:12:49;;;;;;;11.05;6.00;;;2.00;97.40;;;;;;5074614;28;20131;-76
2021/03/20 05:15:27;;;;;;;9.07;5.40;;;2.00;97.40;;;;;;5090537;28;20465;-76
2021/03/20 05:17:54;;;;;;;9.70;5.55;;;2.00;97.40;;;;;;5090689;28;20130;-75
2021/03/20 05:20:21;;;;;;;9.07;5.57;;;2.00;97.40;;;;;;5091126;28;20086;-76
2021/03/20 05:22:49;;;;;;;9.82;5.55;;;1.90;97.40;;;;;;5090426;28;20055;-76
2021/03/20 05:25:20;;;;;;;11.15;6.13;;;1.90;97.30;;;;;;5090252;28;20044;-76
2021/03/20 05:27:47;;;;;;;9.80;5.70;;;1.90;97.50;;;;;;5089933;28;20158;-76
2021/03/20 05:30:16;;;;;;;10.10;5.55;;;1.90;97.50;;;;;;5089940;28;20160;-76
2021/03/20 05:32:43;;;;;;;9.73;5.78;;;1.90;97.50;;;;;;5090418;28;20123;-76
2021/03/20 05:35:19;;;;;;;8.40;5.13;;;1.90;97.60;;;;;;5090825;28;20497;-76
2021/03/20 05:37:46;;;;;;;10.18;5.65;;;1.90;97.50;;;;;;5071796;28;20044;-76
2021/03/20 05:40:24;;;;;;;10.48;5.38;;;2.00;97.50;;;;;;5072355;28;20052;-76
2021/03/20 05:43:24;;;;;;;9.32;5.50;;;2.00;97.40;;;;;;5090531;28;20553;-75
2021/03/20 05:46:04;;;;;;;10.05;5.93;;;2.00;97.50;;;;;;5089889;28;20093;-76
2021/03/20 05:48:35;;;;;;;10.20;5.97;;;2.00;97.50;;;;;;5073107;28;20131;-76
2021/03/20 05:51:27;;;;;;;9.07;5.57;;;2.10;97.40;;;;;;5090305;28;20481;-76
2021/03/20 05:54:44;;;;;;;9.38;5.47;;;2.20;97.20;;;;;;5073500;28;20500;-76
2021/03/20 05:57:20;;;;;;;10.57;6.05;;;2.10;97.10;;;;;;5075843;28;20051;-76
2021/03/20 06:00:00;;;;;;;10.60;5.70;;;2.00;97.40;;;;;;5075752;28;20131;-76
2021/03/20 06:02:49;;;;;;;10.52;5.55;;;2.00;97.40;;;;;;5092909;28;20139;-75
2021/03/20 06:05:33;;;;;;;10.23;5.82;;;2.00;97.50;;;;;;5093501;28;20044;-75
2021/03/20 06:08:48;;;;;;;9.88;6.00;;;2.00;97.40;;;;;;5094455;28;20098;-74
2021/03/20 06:11:29;;;;;;;10.40;5.55;;;2.10;97.30;;;;;;5080070;28;20044;-75
2021/03/20 06:14:13;;;;;;;10.43;6.07;;;2.00;97.20;;;;;;5101083;28;20131;-76
2021/03/20 06:17:00;;;;;;;8.80;5.35;;;2.00;97.20;;;;;;5078540;28;20113;-76
2021/03/20 06:19:44;;;;;;;10.73;5.95;;;2.10;97.30;;;;;;5094011;28;20561;-76
2021/03/20 06:22:53;;;;;;;10.20;5.75;;;2.00;97.10;;;;;;5091188;28;20075;-75
2021/03/20 06:25:57;;;;;;;9.13;5.07;;;2.00;97.20;;;;;;5100015;28;20043;-75
2021/03/20 06:28:28;;;;;;;;;;;2.00;97.20;;;;;;5104278;28;20044;-75
2021/03/20 06:31:01;;;;;;;9.38;5.38;;;2.10;97.10;;;;;;5103576;28;20010;-76
2021/03/20 06:33:31;;;;;;;11.00;5.55;;;2.20;96.80;;;;;;5081945;28;20063;-75
2021/03/20 06:36:03;;;;;;;8.13;4.57;;;2.20;96.40;;;;;;5087273;28;20572;-76
2021/03/20 06:38:39;;;;;;;7.05;4.30;;;2.20;96.40;;;;;;5083292;28;20072;-76
2021/03/20 06:41:18;;;;;;;7.78;4.55;;;2.10;96.00;;;;;;5058690;28;20489;-75
2021/03/20 06:43:52;;;;;;;8.00;4.72;;;2.20;96.10;;;;;;5093589;28;20124;-77
2021/03/20 06:46:23;;;;;;;8.48;5.10;;;2.10;96.20;;;;;;5100763;28;20074;-76
2021/03/20 06:48:50;;;;;;;6.82;4.15;;;2.10;95.80;;;;;;5098030;28;20083;-76
2021/03/20 06:51:16;;;;;;;7.57;4.00;;;2.20;95.60;;;;;;5104267;28;20119;-76
2021/03/20 06:53:49;;;;;;;6.82;4.03;;;2.20;95.30;;;;;;5090263;28;20082;-75
2021/03/20 06:56:18;;;;;;;6.93;4.15;;;2.20;95.30;;;;;;5054918;28;20131;-76
2021/03/20 06:58:45;;;;;;;7.05;3.78;;;2.20;95.10;;;;;;5072679;28;20044;-74
2021/03/20 07:01:39;;;;;;;6.10;3.45;;;2.20;94.80;;;;;;5078786;28;20048;-75
2021/03/20 07:04:40;;;;;;;5.63;3.22;;;2.20;94.60;;;;;;5085069;28;20516;-75
2021/03/20 07:07:42;;;;;;;6.40;3.17;;;2.30;93.40;;;;;;5090735;28;20043;-75
2021/03/20 07:10:30;;;;;;;6.25;3.20;;;2.30;93.00;;;;;;5086870;28;20051;-75
2021/03/20 07:13:17;;;;;;;5.82;3.00;;;2.40;91.00;;;;;;5090264;28;20135;-76
2021/03/20 07:15:46;;;;;;;4.85;2.95;;;2.30;90.70;;;;;;5077985;28;20053;-75
2021/03/20 07:18:37;;;;;;;5.80;2.67;;;2.30;90.60;;;;;;5092391;28;20051;-76
2021/03/20 07:21:33;;;;;;;5.22;2.95;;;2.30;90.60;;;;;;5093334;28;20051;-77
2021/03/20 07:24:06;;;;;;;4.90;2.58;;;2.40;89.70;;;;;;5107869;28;20047;-76
2021/03/20 07:26:54;;;;;;;6.18;2.70;;;2.30;89.60;;;;;;5078771;28;20055;-77
2021/03/20 07:29:38;;;;;;;5.93;2.58;;;2.40;88.60;;;;;;5091105;28;20429;-77
2021/03/20 07:32:06;;;;;;;5.53;2.40;;;2.40;88.90;;;;;;5092415;28;20138;-77
2021/03/20 07:34:35;;;;;;;4.43;2.65;;;2.50;88.70;;;;;;5097902;28;20131;-76
2021/03/20 07:37:12;;;;;;;4.78;2.58;;;2.50;86.00;;;;;;5098147;28;20254;-76
2021/03/20 07:39:44;;;;;;;4.82;2.55;;;2.50;84.20;;;;;;5112920;28;20048;-77
2021/03/20 07:42:31;;;;;;;5.35;2.65;;;2.40;82.70;;;;;;5096675;28;20058;-77
2021/03/20 07:45:00;;;;;;;5.53;2.97;;;2.30;83.50;;;;;;5082701;28;20079;-75
2021/03/20 07:47:31;;;;;;;5.55;2.40;;;2.30;84.20;;;;;;5095541;28;20086;-76
2021/03/20 07:50:26;;;;;;;4.65;2.50;;;2.40;84.00;;;;;;5093319;28;20123;-74
2021/03/20 07:53:48;;;;;;;4.93;2.60;;;2.50;84.10;;;;;;5077529;28;20148;-75
2021/03/20 07:56:44;;;;;;;4.03;2.50;;;2.60;84.30;;;;;;5072809;28;20094;-76
2021/03/20 07:59:25;;;;;;;4.57;2.47;;;2.70;82.60;;;;;;5042723;28;20417;-77
2021/03/20 08:01:56;;;;;;;4.85;2.47;;;2.70;82.40;;;;;;5088158;28;20048;-75
2021/03/20 08:04:51;;;;;;;5.05;2.55;;;2.70;81.50;;;;;;5100020;28;20123;-75
2021/03/20 08:07:41;;;;;;;4.63;2.70;;;2.80;80.30;;;;;;5110994;28;20048;-76
2021/03/20 08:10:22;;;;;;;6.18;2.58;;;2.80;79.00;;;;;;5096535;28;20043;-77
2021/03/20 08:13:03;;;;;;;4.68;2.20;;;2.90;78.30;;;;;;5098279;28;20493;-77
2021/03/20 08:15:35;;;;;;;4.32;2.50;;;2.90;76.80;;;;;;5095781;28;20390;-75
2021/03/20 08:18:17;;;;;;;5.55;2.80;;;2.90;76.60;;;;;;5078923;28;20047;-76
2021/03/20 08:20:56;;;;;;;3.70;2.20;;;2.90;76.20;;;;;;5089681;28;20125;-76
2021/03/20 08:24:14;;;;;;;5.43;2.70;;;3.00;74.90;;;;;;5090175;28;20127;-76
2021/03/20 08:26:51;;;;;;;5.03;2.45;;;3.10;73.70;;;;;;5090590;28;20558;-76
2021/03/20 08:29:43;;;;;;;3.80;2.05;;;3.00;73.40;;;;;;5105129;28;20143;-78
2021/03/20 08:32:24;;;;;;;4.25;2.03;;;3.00;74.10;;;;;;5103194;28;20127;-75
2021/03/20 08:35:13;;;;;;;6.45;3.00;;;3.00;74.00;;;;;;5080420;28;20074;-75
2021/03/20 08:38:23;;;;;;;5.18;2.88;;;3.00;73.40;;;;;;5078492;28;20127;-75
2021/03/20 08:41:07;;;;;;;6.25;3.60;;;3.10;73.00;;;;;;5075061;28;20127;-77
2021/03/20 08:44:29;;;;;;;5.28;2.40;;;3.20;72.40;;;;;;5075274;28;20131;-78
2021/03/20 08:47:42;;;;;;;5.05;2.25;;;3.30;71.40;;;;;;5074886;28;20127;-78
2021/03/20 08:50:24;;;;;;;4.88;2.58;;;3.20;70.10;;;;;;5083462;28;20080;-78
2021/03/20 08:53:09;;;;;;;4.25;2.20;;;3.20;69.80;;;;;;5090259;28;20153;-78
2021/03/20 08:55:54;;;;;;;3.17;1.88;;;3.30;70.30;;;;;;5115472;28;20043;-74
2021/03/20 08:58:39;;;;;;;5.10;2.40;;;3.30;69.80;;;;;;5114266;28;20054;-77
2021/03/20 09:01:10;;;;;;;;;;;3.40;67.70;;;;;;5097867;28;20044;-77
2021/03/20 09:03:43;;;;;;;4.47;2.45;;;3.40;67.80;;;;;;5094205;28;19974;-78
2021/03/20 09:06:19;;;;;;;3.90;1.92;;;3.50;65.70;;;;;;5094389;28;20160;-77
2021/03/20 09:08:48;;;;;;;3.00;1.55;;;3.50;64.60;;;;;;5081677;28;20044;-78
2021/03/20 09:11:32;;;;;;;4.35;1.70;;;3.40;63.70;;;;;;5057564;28;20041;-78
2021/03/20 09:14:07;;;;;;;3.53;1.60;;;3.40;62.90;;;;;;5076089;28;20080;-77
2021/03/20 09:16:40;;;;;;;3.28;1.70;;;3.40;61.20;;;;;;5094303;28;20139;-75
2021/03/20 09:19:13;;;;;;;4.88;2.30;;;3.40;60.60;;;;;;5105215;28;20603;-76
2021/03/20 09:21:42;;;;;;;6.03;2.15;;;3.40;60.00;;;;;;5083355;28;20048;-75
2021/03/20 09:24:15;;;;;;;6.63;1.83;;;3.40;58.90;;;;;;5084809;28;20128;-75
2021/03/20 09:26:46;;;;;;;2.90;1.35;;;3.60;58.20;;;;;;5064434;28;20131;-75
2021/03/20 09:29:19;;;;;;;3.25;1.55;;;3.60;56.90;;;;;;5092242;28;20489;-75
2021/03/20 09:32:10;;;;;;;4.05;1.77;;;3.60;57.30;;;;;;5094064;28;20044;-76
2021/03/20 09:34:50;;;;;;;4.25;1.40;;;3.60;55.90;;;;;;5093816;28;20052;-77
2021/03/20 09:37:53;;;;;;;3.80;1.80;;;3.50;56.80;;;;;;5092882;28;20108;-77
2021/03/20 09:40:42;;;;;;;4.72;1.98;;;3.60;56.80;;;;;;4995235;28;20084;-74
2021/03/20 09:43:39;;;;;;;2.97;1.60;;;3.60;57.30;;;;;;4993076;28;20116;-75
2021/03/20 09:46:50;;;;;;;3.60;1.77;;;3.60;57.00;;;;;;5078941;28;20127;-74
2021/03/20 09:49:39;;;;;;;2.95;1.42;;;3.50;56.40;;;;;;5082752;28;20036;-75
2021/03/20 09:52:09;;;;;;;4.03;1.98;;;3.60;57.30;;;;;;5103744;28;20134;-74
2021/03/20 09:54:50;;;;;;;3.83;2.00;;;3.70;56.20;;;;;;5095600;28;20138;-75
2021/03/20 09:57:50;;;;;;;3.53;1.90;;;3.60;56.70;;;;;;5095166;28;20066;-75
2021/03/20 10:01:02;;;;;;;4.38;1.88;;;3.60;56.50;;;;;;5083854;28;20055;-75
2021/03/20 10:04:25;;;;;;;5.25;1.83;;;3.50;57.40;;;;;;5093930;28;20142;-75
2021/03/20 10:07:32;;;;;;;6.97;3.10;;;3.60;57.20;;;;;;5098243;28;20080;-76
2021/03/20 10:10:31;;;;;;;5.28;2.25;;;3.50;56.80;;;;;;5088620;28;20039;-76
2021/03/20 10:13:11;;;;;;;2.78;1.40;;;3.60;55.70;;;;;;5096612;28;20169;-75
2021/03/20 10:15:53;;;;;;;3.42;1.42;;;3.60;54.90;;;;;;5091202;28;20143;-74
2021/03/20 10:18:36;;;;;;;3.35;1.30;;;3.60;54.20;;;;;;5101762;28;20135;-76
2021/03/20 10:21:29;;;;;;;6.45;2.33;;;3.70;54.70;;;;;;5080977;28;20040;-77
2021/03/20 10:24:17;;;;;;;4.07;1.60;;;3.80;54.80;;;;;;5078965;28;20126;-75
2021/03/20 10:26:52;;;;;;;3.35;1.33;;;3.80;54.80;;;;;;5060809;28;20500;-75
2021/03/20 10:29:34;;;;;;;3.88;1.77;;;3.90;53.60;;;;;;5093093;28;20127;-77
2021/03/20 10:32:19;;;;;;;3.22;1.60;;;3.90;53.00;;;;;;5092878;28;20058;-76
2021/03/20 10:34:50;;;;;;;4.03;1.50;;;3.90;50.30;;;;;;5092934;28;20123;-76
2021/03/20 10:37:18;;;;;;;3.70;1.60;;;3.90;49.60;;;;;;5093068;28;20131;-76
2021/03/20 10:39:49;;;;;;;4.78;1.60;;;3.80;50.50;;;;;;5093334;28;20035;-76
2021/03/20 10:42:23;;;;;;;3.38;1.50;;;3.80;51.20;;;;;;5075385;28;20055;-76
2021/03/20 10:44:54;;;;;;;2.42;1.30;;;3.90;51.10;;;;;;5075844;28;20127;-76
2021/03/20 10:47:27;;;;;;;3.65;1.40;;;4.00;51.60;;;;;;5088800;28;20193;-74
2021/03/20 10:50:00;;;;;;;3.97;1.48;;;4.10;50.10;;;;;;5090961;28;20130;-74
2021/03/20 10:52:32;;;;;;;4.18;1.50;;;4.10;49.60;;;;;;5091830;28;20138;-74
2021/03/20 10:55:05;;;;;;;3.72;1.50;;;4.00;48.80;;;;;;5081822;28;20047;-74
2021/03/20 10:57:33;;;;;;;2.70;1.30;;;4.00;48.90;;;;;;5092153;28;20052;-75
2021/03/20 10:59:59;;;;;;;3.13;1.75;;;4.00;49.50;;;;;;5090093;28;20507;-75
2021/03/20 11:02:34;;;;;;;3.85;1.50;;;4.00;49.10;;;;;;5090602;28;20111;-76
2021/03/20 11:05:24;;;;;;;2.53;1.20;;;4.00;49.40;;;;;;5091692;28;20056;-78
2021/03/20 11:07:54;;;;;;;3.25;1.50;;;4.00;49.90;;;;;;5091748;28;20521;-75
2021/03/20 11:10:32;;;;;;;4.95;2.00;;;4.10;49.40;;;;;;5074046;28;20070;-74
2021/03/20 11:13:05;;;;;;;6.65;2.97;;;4.30;49.80;;;;;;5092167;28;20075;-74
2021/03/20 11:15:35;;;;;;;11.20;4.57;;;4.20;49.40;;;;;;5092496;28;20080;-74
2021/03/20 11:18:07;;;;;;;4.57;1.90;;;4.20;49.90;;;;;;5092694;28;20505;-77
2021/03/20 11:20:37;;;;;;;8.23;3.25;;;4.30;47.30;;;;;;5092026;28;20131;-75
2021/03/20 11:23:06;;;;;;;5.55;2.47;;;4.30;48.10;;;;;;5075112;28;20127;-76
2021/03/20 11:25:38;;;;;;;3.63;1.65;;;4.30;48.60;;;;;;5095033;28;20073;-76
2021/03/20 11:28:09;;;;;;;3.75;1.40;;;4.40;48.90;;;;;;5096802;28;20483;-76
2021/03/20 11:30:44;;;;;;;4.13;1.70;;;4.40;50.00;;;;;;5096285;28;20134;-75
2021/03/20 11:33:14;;;;;;;;;;;4.50;48.10;;;;;;5079088;28;20468;-76
2021/03/20 11:35:45;;;;;;;3.30;1.45;;;4.50;48.70;;;;;;5096019;28;19926;-75
2021/03/20 11:38:15;;;;;;;3.40;1.48;;;4.60;49.30;;;;;;5096217;28;20139;-76
2021/03/20 11:40:45;;;;;;;3.88;1.55;;;4.80;44.30;;;;;;5078520;28;20127;-76
2021/03/20 11:43:22;;;;;;;3.40;1.20;;;4.70;45.80;;;;;;5094985;28;20436;-74
2021/03/20 11:45:53;;;;;;;2.88;1.30;;;4.80;47.10;;;;;;5091769;28;20051;-75
2021/03/20 11:48:32;;;;;;;2.95;1.30;;;4.80;47.40;;;;;;5092363;28;20065;-74
2021/03/20 11:51:00;;;;;;;8.05;2.85;;;5.00;47.90;;;;;;5092956;28;20044;-74
2021/03/20 11:53:34;;;;;;;3.63;1.55;;;5.00;47.20;;;;;;5092419;28;20536;-76
2021/03/20 11:56:13;;;;;;;3.25;1.40;;;5.10;47.10;;;;;;5092229;28;20397;-76
2021/03/20 11:58:41;;;;;;;3.92;1.40;;;5.20;47.00;;;;;;5092504;28;20048;-76
2021/03/20 12:01:26;;;;;;;3.83;1.08;;;5.30;46.30;;;;;;5074391;28;20056;-76
2021/03/20 12:03:54;;;;;;;7.25;2.70;;;5.40;44.20;;;;;;5090861;28;20087;-75
2021/03/20 12:06:27;;;;;;;3.60;1.60;;;5.50;44.50;;;;;;5090606;28;20156;-75
2021/03/20 12:08:55;;;;;;;2.97;1.30;;;5.50;44.20;;;;;;5091802;28;20047;-76
2021/03/20 12:11:53;;;;;;;3.10;1.23;;;5.60;43.30;;;;;;5090996;28;20134;-74
2021/03/20 12:14:33;;;;;;;4.40;1.45;;;5.60;42.30;;;;;;5077916;28;20416;-76
2021/03/20 12:17:18;;;;;;;3.42;1.30;;;5.70;43.50;;;;;;5071351;28;20132;-76
2021/03/20 12:19:59;;;;;;;3.42;1.25;;;5.80;43.90;;;;;;5071827;28;20048;-76
2021/03/20 12:22:42;;;;;;;3.70;1.40;;;6.00;42.70;;;;;;5054197;28;20048;-76
2021/03/20 12:25:30;;;;;;;4.32;1.30;;;6.00;42.10;;;;;;5080223;28;20044;-75
2021/03/20 12:28:30;;;;;;;3.10;1.23;;;6.30;41.50;;;;;;5091804;28;20513;-74
2021/03/20 12:31:08;;;;;;;2.55;1.13;;;6.40;41.10;;;;;;5091732;28;20040;-76
2021/03/20 12:33:46;;;;;;;3.08;1.40;;;6.50;40.40;;;;;;5091885;28;20051;-76
2021/03/20 12:36:41;;;;;;;2.70;1.20;;;6.60;40.60;;;;;;5084555;28;20130;-75
2021/03/20 12:39:10;;;;;;;3.45;1.63;;;6.70;40.90;;;;;;5083033;28;20076;-74
2021/03/20 12:41:40;;;;;;;4.30;1.52;;;6.90;39.70;;;;;;5091622;28;20060;-77
2021/03/20 12:44:13;;;;;;;3.55;1.50;;;7.10;39.30;;;;;;5090441;28;20054;-75
2021/03/20 12:46:44;;;;;;;2.25;1.10;;;7.30;39.80;;;;;;5091794;28;20148;-75
2021/03/20 12:49:25;;;;;;;2.35;1.10;;;7.50;38.20;;;;;;5090373;28;20044;-75
2021/03/20 12:51:57;;;;;;;3.25;1.10;;;7.50;39.10;;;;;;5090624;28;20131;-76
2021/03/20 12:54:27;;;;;;;3.90;1.60;;;7.60;37.80;;;;;;5091004;28;20478;-76
2021/03/20 12:56:54;;;;;;;4.32;1.63;;;7.60;37.40;;;;;;5088718;28;20131;-75
2021/03/20 12:59:22;;;;;;;4.18;1.45;;;7.70;36.70;;;;;;5079543;28;20501;-75
2021/03/20 13:01:49;;;;;;;3.50;1.25;;;7.50;36.50;;;;;;5078470;28;20117;-75
2021/03/20 13:04:18;;;;;;;4.00;1.52;;;7.40;38.10;;;;;;5095163;28;20143;-76
2021/03/20 13:06:45;;;;;;;3.08;1.30;;;7.50;40.20;;;;;;5092637;28;20505;-76
2021/03/20 13:09:12;;;;;;;3.20;1.30;;;7.70;40.80;;;;;;5090497;28;20071;-76
2021/03/20 13:11:40;;;;;;;4.05;1.40;;;7.80;40.20;;;;;;5091320;28;20044;-75
2021/03/20 13:14:08;;;;;;;3.13;1.33;;;8.00;40.30;;;;;;5101009;28;20146;-76
2021/03/20 13:16:37;;;;;;;3.10;1.40;;;8.20;39.70;;;;;;5100576;28;20047;-75
2021/03/20 13:19:05;;;;;;;4.03;1.70;;;8.30;39.20;;;;;;5063210;28;20094;-76
2021/03/20 13:21:32;;;;;;;3.60;1.42;;;8.50;40.60;;;;;;5089569;28;20048;-75
2021/03/20 13:23:59;;;;;;;3.20;1.70;;;8.70;39.00;;;;;;5092102;28;20162;-76
2021/03/20 13:26:26;;;;;;;3.63;1.73;;;8.80;36.30;;;;;;5097835;28;20783;-76
2021/03/20 13:28:53;;;;;;;3.35;1.50;;;8.70;36.30;;;;;;5088863;28;20044;-76
2021/03/20 13:31:20;;;;;;;3.97;1.67;;;8.50;37.20;;;;;;5075887;28;20512;-76
2021/03/20 13:33:48;;;;;;;4.50;1.50;;;8.70;37.60;;;;;;5098833;28;20541;-75
2021/03/20 13:36:15;;;;;;;8.85;4.35;;;8.80;39.00;;;;;;5078473;28;20082;-77
2021/03/20 13:38:43;;;;;;;5.60;2.83;;;9.00;38.60;;;;;;5091565;28;20056;-80
2021/03/20 13:41:10;;;;;;;4.07;1.90;;;9.20;42.30;;;;;;5073254;28;20085;-79
2021/03/20 13:43:38;;;;;;;3.15;1.58;;;9.70;44.60;;;;;;5090917;28;20044;-75
2021/03/20 13:46:04;;;;;;;4.15;1.75;;;10.00;38.70;;;;;;5090584;28;20426;-75
2021/03/20 13:48:35;;;;;;;3.72;1.77;;;10.30;36.10;;;;;;5065821;28;20048;-75